sensor_id;sensor_type;location;lat;lon;timestamp;P1;durP1;ratioP1;P2;durP2;ratioP2
67514;SDS011;60646;55.802;37.032;2022-10-19T05:22:09;3.67;;;1.48;;
67514;SDS011;60646;55.802;37.032;2022-10-19T05:24:34;3.53;;;1.92;;
67514;SDS011;60646;55.802;37.032;2022-10-19T05:29:52;2.53;;;1.50;;
67514;SDS011;60646;55.802;37.032;2022-10-19T05:32:17;2.33;;;1.30;;
67514;SDS011;60646;55.802;37.032;2022-10-19T05:34:43;1.60;;;1.20;;
67514;SDS011;60646;55.802;37.032;2022-10-19T05:37:09;1.70;;;1.20;;
67514;SDS011;60646;55.802;37.032;2022-10-19T05:39:35;2.05;;;1.33;;
67514;SDS011;60646;55.802;37.032;2022-10-19T05:45:17;1.67;;;1.25;;
67514;SDS011;60646;55.802;37.032;2022-10-19T05:47:43;1.90;;;1.20;;
67514;SDS011;60646;55.802;37.032;2022-10-19T05:50:12;1.80;;;1.20;;
67514;SDS011;60646;55.802;37.032;2022-10-19T05:52:38;1.52;;;1.10;;
67514;SDS011;60646;55.802;37.032;2022-10-19T05:55:04;1.85;;;1.05;;
67514;SDS011;60646;55.802;37.032;2022-10-19T05:57:30;2.65;;;1.25;;
67514;SDS011;60646;55.802;37.032;2022-10-19T05:59:57;4.18;;;1.30;;
67514;SDS011;60646;55.802;37.032;2022-10-19T06:02:23;1.77;;;1.40;;
67514;SDS011;60646;55.802;37.032;2022-10-19T06:04:49;1.33;;;1.02;;
67514;SDS011;60646;55.802;37.032;2022-10-19T06:07:14;1.70;;;1.20;;
67514;SDS011;60646;55.802;37.032;2022-10-19T06:09:40;1.58;;;1.15;;
67514;SDS011;60646;55.802;37.032;2022-10-19T06:12:06;1.50;;;1.30;;
67514;SDS011;60646;55.802;37.032;2022-10-19T06:14:32;2.80;;;1.33;;
67514;SDS011;60646;55.802;37.032;2022-10-19T06:16:58;2.22;;;1.50;;
67514;SDS011;60646;55.802;37.032;2022-10-19T06:19:24;2.20;;;1.40;;
67514;SDS011;60646;55.802;37.032;2022-10-19T06:21:50;2.17;;;1.27;;
67514;SDS011;60646;55.802;37.032;2022-10-19T06:24:16;2.00;;;1.20;;
67514;SDS011;60646;55.802;37.032;2022-10-19T06:26:41;1.90;;;1.20;;
67514;SDS011;60646;55.802;37.032;2022-10-19T06:29:08;2.30;;;1.58;;
67514;SDS011;60646;55.802;37.032;2022-10-19T06:32:14;3.10;;;1.65;;
67514;SDS011;60646;55.802;37.032;2022-10-19T06:35:01;2.47;;;1.80;;
67514;SDS011;60646;55.802;37.032;2022-10-19T06:37:29;3.83;;;1.80;;
67514;SDS011;60646;55.802;37.032;2022-10-19T06:40:04;3.45;;;1.90;;
67514;SDS011;60646;55.802;37.032;2022-10-19T06:42:31;3.63;;;1.80;;
67514;SDS011;60646;55.802;37.032;2022-10-19T06:44:58;3.30;;;1.73;;
67514;SDS011;60646;55.802;37.032;2022-10-19T06:47:27;3.30;;;1.88;;
67514;SDS011;60646;55.802;37.032;2022-10-19T06:49:59;2.85;;;1.88;;
67514;SDS011;60646;55.802;37.032;2022-10-19T06:52:25;2.50;;;1.80;;
67514;SDS011;60646;55.802;37.032;2022-10-19T06:54:51;3.85;;;2.28;;
67514;SDS011;60646;55.802;37.032;2022-10-19T06:57:17;3.67;;;2.45;;
67514;SDS011;60646;55.802;37.032;2022-10-19T06:59:42;3.70;;;2.10;;
67514;SDS011;60646;55.802;37.032;2022-10-19T07:02:11;4.13;;;2.40;;
67514;SDS011;60646;55.802;37.032;2022-10-19T07:04:37;3.00;;;1.92;;
67514;SDS011;60646;55.802;37.032;2022-10-19T07:07:03;2.58;;;2.03;;
67514;SDS011;60646;55.802;37.032;2022-10-19T07:09:29;3.08;;;1.70;;
67514;SDS011;60646;55.802;37.032;2022-10-19T07:11:55;3.95;;;2.05;;
67514;SDS011;60646;55.802;37.032;2022-10-19T07:14:20;3.50;;;2.28;;
67514;SDS011;60646;55.802;37.032;2022-10-19T07:16:49;3.75;;;2.10;;
67514;SDS011;60646;55.802;37.032;2022-10-19T07:19:16;3.20;;;2.25;;
67514;SDS011;60646;55.802;37.032;2022-10-19T07:21:43;3.53;;;2.10;;
67514;SDS011;60646;55.802;37.032;2022-10-19T07:24:09;3.47;;;2.00;;
67514;SDS011;60646;55.802;37.032;2022-10-19T07:26:37;3.85;;;2.00;;
67514;SDS011;60646;55.802;37.032;2022-10-19T07:29:02;4.22;;;2.60;;
67514;SDS011;60646;55.802;37.032;2022-10-19T07:31:29;3.33;;;2.05;;
67514;SDS011;60646;55.802;37.032;2022-10-19T07:33:58;4.57;;;2.17;;
67514;SDS011;60646;55.802;37.032;2022-10-19T07:36:25;3.85;;;2.33;;
67514;SDS011;60646;55.802;37.032;2022-10-19T07:38:52;4.63;;;2.45;;
67514;SDS011;60646;55.802;37.032;2022-10-19T07:41:19;4.05;;;2.10;;
67514;SDS011;60646;55.802;37.032;2022-10-19T07:43:46;4.38;;;2.38;;
67514;SDS011;60646;55.802;37.032;2022-10-19T07:46:13;4.10;;;2.35;;
67514;SDS011;60646;55.802;37.032;2022-10-19T07:48:41;6.75;;;2.47;;
67514;SDS011;60646;55.802;37.032;2022-10-19T07:51:11;3.85;;;2.30;;
67514;SDS011;60646;55.802;37.032;2022-10-19T07:53:39;4.95;;;3.05;;
67514;SDS011;60646;55.802;37.032;2022-10-19T07:56:06;3.33;;;2.28;;
67514;SDS011;60646;55.802;37.032;2022-10-19T07:58:34;4.20;;;2.22;;
67514;SDS011;60646;55.802;37.032;2022-10-19T08:01:01;4.03;;;2.42;;
67514;SDS011;60646;55.802;37.032;2022-10-19T08:03:27;4.03;;;2.30;;
67514;SDS011;60646;55.802;37.032;2022-10-19T08:05:58;3.58;;;2.20;;
67514;SDS011;60646;55.802;37.032;2022-10-19T08:08:28;3.88;;;2.50;;
67514;SDS011;60646;55.802;37.032;2022-10-19T08:10:55;3.70;;;2.28;;
67514;SDS011;60646;55.802;37.032;2022-10-19T08:13:21;4.60;;;2.05;;
67514;SDS011;60646;55.802;37.032;2022-10-19T08:15:46;3.47;;;1.92;;
67514;SDS011;60646;55.802;37.032;2022-10-19T08:18:13;4.72;;;2.10;;
67514;SDS011;60646;55.802;37.032;2022-10-19T08:20:42;3.30;;;2.08;;
67514;SDS011;60646;55.802;37.032;2022-10-19T08:23:08;3.85;;;1.90;;
67514;SDS011;60646;55.802;37.032;2022-10-19T08:25:34;4.63;;;2.10;;
67514;SDS011;60646;55.802;37.032;2022-10-19T08:28:04;3.67;;;1.98;;
67514;SDS011;60646;55.802;37.032;2022-10-19T08:30:52;3.53;;;1.88;;
67514;SDS011;60646;55.802;37.032;2022-10-19T08:33:22;2.83;;;1.83;;
67514;SDS011;60646;55.802;37.032;2022-10-19T08:35:48;3.40;;;2.40;;
67514;SDS011;60646;55.802;37.032;2022-10-19T08:38:14;4.65;;;2.15;;
67514;SDS011;60646;55.802;37.032;2022-10-19T08:40:40;4.47;;;2.30;;
67514;SDS011;60646;55.802;37.032;2022-10-19T08:48:27;5.90;;;2.45;;
67514;SDS011;60646;55.802;37.032;2022-10-19T08:50:57;5.35;;;2.70;;
67514;SDS011;60646;55.802;37.032;2022-10-19T08:53:39;3.85;;;2.42;;
67514;SDS011;60646;55.802;37.032;2022-10-19T08:58:45;4.55;;;2.47;;
67514;SDS011;60646;55.802;37.032;2022-10-19T09:04:12;2.28;;;1.52;;
67514;SDS011;60646;55.802;37.032;2022-10-19T09:09:21;4.15;;;2.75;;
67514;SDS011;60646;55.802;37.032;2022-10-19T09:11:49;3.75;;;2.35;;
67514;SDS011;60646;55.802;37.032;2022-10-19T09:14:54;3.00;;;1.70;;
67514;SDS011;60646;55.802;37.032;2022-10-19T09:17:31;2.35;;;1.63;;
67514;SDS011;60646;55.802;37.032;2022-10-19T09:20:01;2.97;;;1.70;;
67514;SDS011;60646;55.802;37.032;2022-10-19T09:22:40;3.45;;;2.00;;
67514;SDS011;60646;55.802;37.032;2022-10-19T09:25:28;3.75;;;2.47;;
67514;SDS011;60646;55.802;37.032;2022-10-19T09:27:59;5.28;;;2.47;;
67514;SDS011;60646;55.802;37.032;2022-10-19T09:30:33;4.25;;;1.95;;
67514;SDS011;60646;55.802;37.032;2022-10-19T09:33:03;4.05;;;2.17;;
67514;SDS011;60646;55.802;37.032;2022-10-19T09:35:37;3.33;;;1.92;;
67514;SDS011;60646;55.802;37.032;2022-10-19T09:38:08;3.17;;;1.58;;
67514;SDS011;60646;55.802;37.032;2022-10-19T09:40:38;2.73;;;1.80;;
67514;SDS011;60646;55.802;37.032;2022-10-19T09:43:05;2.63;;;1.60;;
67514;SDS011;60646;55.802;37.032;2022-10-19T09:45:58;6.15;;;1.90;;
67514;SDS011;60646;55.802;37.032;2022-10-19T09:48:39;3.30;;;2.13;;
67514;SDS011;60646;55.802;37.032;2022-10-19T09:51:13;4.75;;;1.98;;
67514;SDS011;60646;55.802;37.032;2022-10-19T09:53:43;5.55;;;3.20;;
67514;SDS011;60646;55.802;37.032;2022-10-19T09:56:16;4.47;;;2.75;;
67514;SDS011;60646;55.802;37.032;2022-10-19T09:58:54;3.15;;;2.17;;
67514;SDS011;60646;55.802;37.032;2022-10-19T10:01:31;6.88;;;3.13;;
67514;SDS011;60646;55.802;37.032;2022-10-19T10:04:08;5.65;;;3.25;;
67514;SDS011;60646;55.802;37.032;2022-10-19T10:06:46;4.75;;;2.72;;
67514;SDS011;60646;55.802;37.032;2022-10-19T10:09:16;5.63;;;2.80;;
67514;SDS011;60646;55.802;37.032;2022-10-19T10:11:47;5.45;;;2.47;;
67514;SDS011;60646;55.802;37.032;2022-10-19T10:14:34;4.68;;;2.40;;
67514;SDS011;60646;55.802;37.032;2022-10-19T10:17:02;4.60;;;2.30;;
67514;SDS011;60646;55.802;37.032;2022-10-19T10:19:31;3.55;;;2.25;;
67514;SDS011;60646;55.802;37.032;2022-10-19T10:22:00;2.47;;;1.88;;
67514;SDS011;60646;55.802;37.032;2022-10-19T10:24:28;3.72;;;2.05;;
67514;SDS011;60646;55.802;37.032;2022-10-19T10:27:04;3.00;;;1.90;;
67514;SDS011;60646;55.802;37.032;2022-10-19T10:37:05;2.85;;;1.90;;
67514;SDS011;60646;55.802;37.032;2022-10-19T10:39:38;3.13;;;1.73;;
67514;SDS011;60646;55.802;37.032;2022-10-19T10:42:07;4.50;;;1.67;;
67514;SDS011;60646;55.802;37.032;2022-10-19T10:44:35;2.20;;;1.55;;
67514;SDS011;60646;55.802;37.032;2022-10-19T10:47:04;2.83;;;1.80;;
67514;SDS011;60646;55.802;37.032;2022-10-19T10:49:37;2.63;;;1.50;;
67514;SDS011;60646;55.802;37.032;2022-10-19T10:52:11;1.98;;;1.40;;
67514;SDS011;60646;55.802;37.032;2022-10-19T10:54:39;2.42;;;1.48;;
67514;SDS011;60646;55.802;37.032;2022-10-19T10:57:21;2.03;;;1.58;;
67514;SDS011;60646;55.802;37.032;2022-10-19T11:05:36;3.20;;;1.50;;
67514;SDS011;60646;55.802;37.032;2022-10-19T11:17:23;2.17;;;1.50;;
67514;SDS011;60646;55.802;37.032;2022-10-19T11:19:40;2.22;;;1.40;;
67514;SDS011;60646;55.802;37.032;2022-10-19T11:54:14;3.05;;;1.20;;
67514;SDS011;60646;55.802;37.032;2022-10-19T11:56:51;2.42;;;1.13;;
67514;SDS011;60646;55.802;37.032;2022-10-19T12:04:34;4.03;;;1.60;;
67514;SDS011;60646;55.802;37.032;2022-10-19T12:20:57;1.85;;;1.08;;
67514;SDS011;60646;55.802;37.032;2022-10-19T12:23:26;2.13;;;1.42;;
67514;SDS011;60646;55.802;37.032;2022-10-19T12:25:57;4.75;;;1.95;;
67514;SDS011;60646;55.802;37.032;2022-10-19T12:28:26;4.03;;;1.52;;
67514;SDS011;60646;55.802;37.032;2022-10-19T12:30:55;2.38;;;1.55;;
67514;SDS011;60646;55.802;37.032;2022-10-19T12:33:23;4.40;;;1.80;;
67514;SDS011;60646;55.802;37.032;2022-10-19T12:41:46;2.47;;;1.48;;
67514;SDS011;60646;55.802;37.032;2022-10-19T12:46:58;2.75;;;1.48;;
67514;SDS011;60646;55.802;37.032;2022-10-19T12:51:57;3.38;;;1.67;;
67514;SDS011;60646;55.802;37.032;2022-10-19T12:54:24;3.70;;;2.17;;
67514;SDS011;60646;55.802;37.032;2022-10-19T12:56:52;4.43;;;2.35;;
67514;SDS011;60646;55.802;37.032;2022-10-19T12:59:21;3.17;;;1.83;;
67514;SDS011;60646;55.802;37.032;2022-10-19T13:01:50;5.88;;;1.85;;
67514;SDS011;60646;55.802;37.032;2022-10-19T13:04:21;4.05;;;1.90;;
67514;SDS011;60646;55.802;37.032;2022-10-19T13:07:04;3.15;;;1.95;;
67514;SDS011;60646;55.802;37.032;2022-10-19T13:22:46;5.00;;;1.95;;
67514;SDS011;60646;55.802;37.032;2022-10-19T13:52:07;2.83;;;1.67;;
67514;SDS011;60646;55.802;37.032;2022-10-19T13:57:32;3.15;;;2.13;;
67514;SDS011;60646;55.802;37.032;2022-10-19T14:02:54;3.97;;;2.30;;
67514;SDS011;60646;55.802;37.032;2022-10-19T14:08:39;2.88;;;2.03;;
67514;SDS011;60646;55.802;37.032;2022-10-19T14:11:14;5.22;;;1.80;;
67514;SDS011;60646;55.802;37.032;2022-10-19T14:13:43;3.30;;;1.80;;
67514;SDS011;60646;55.802;37.032;2022-10-19T14:16:16;3.50;;;2.22;;
67514;SDS011;60646;55.802;37.032;2022-10-19T14:18:53;3.67;;;2.72;;
67514;SDS011;60646;55.802;37.032;2022-10-19T14:21:33;5.85;;;2.22;;
67514;SDS011;60646;55.802;37.032;2022-10-19T14:24:01;4.68;;;2.65;;
67514;SDS011;60646;55.802;37.032;2022-10-19T14:26:27;3.67;;;2.60;;
67514;SDS011;60646;55.802;37.032;2022-10-19T14:28:56;4.75;;;2.72;;
67514;SDS011;60646;55.802;37.032;2022-10-19T14:31:25;5.85;;;2.80;;
67514;SDS011;60646;55.802;37.032;2022-10-19T14:33:59;6.40;;;4.05;;
67514;SDS011;60646;55.802;37.032;2022-10-19T14:36:27;4.95;;;3.25;;
67514;SDS011;60646;55.802;37.032;2022-10-19T14:39:00;3.95;;;2.55;;
67514;SDS011;60646;55.802;37.032;2022-10-19T14:43:53;6.28;;;2.88;;
67514;SDS011;60646;55.802;37.032;2022-10-19T14:46:20;5.53;;;2.90;;
67514;SDS011;60646;55.802;37.032;2022-10-19T14:48:46;5.57;;;3.60;;
67514;SDS011;60646;55.802;37.032;2022-10-19T14:59:03;4.38;;;2.33;;
67514;SDS011;60646;55.802;37.032;2022-10-19T15:01:39;4.40;;;2.17;;
67514;SDS011;60646;55.802;37.032;2022-10-19T15:04:06;5.25;;;2.65;;
67514;SDS011;60646;55.802;37.032;2022-10-19T15:06:32;2.63;;;1.80;;
67514;SDS011;60646;55.802;37.032;2022-10-19T15:09:06;3.63;;;2.05;;
67514;SDS011;60646;55.802;37.032;2022-10-19T15:11:50;5.38;;;2.30;;
67514;SDS011;60646;55.802;37.032;2022-10-19T15:14:19;6.00;;;2.80;;
67514;SDS011;60646;55.802;37.032;2022-10-19T15:17:17;6.05;;;3.10;;
67514;SDS011;60646;55.802;37.032;2022-10-19T15:19:46;6.13;;;3.58;;
67514;SDS011;60646;55.802;37.032;2022-10-19T15:22:16;6.13;;;3.05;;
67514;SDS011;60646;55.802;37.032;2022-10-19T15:32:50;4.47;;;3.00;;
67514;SDS011;60646;55.802;37.032;2022-10-19T15:35:42;4.72;;;2.95;;
67514;SDS011;60646;55.802;37.032;2022-10-19T15:38:15;4.88;;;3.05;;
67514;SDS011;60646;55.802;37.032;2022-10-19T15:40:47;5.93;;;3.10;;
67514;SDS011;60646;55.802;37.032;2022-10-19T15:52:14;4.72;;;2.15;;
67514;SDS011;60646;55.802;37.032;2022-10-19T15:54:40;5.22;;;2.90;;
67514;SDS011;60646;55.802;37.032;2022-10-19T15:59:55;3.00;;;1.95;;
67514;SDS011;60646;55.802;37.032;2022-10-19T16:02:23;4.00;;;2.15;;
67514;SDS011;60646;55.802;37.032;2022-10-19T16:04:52;5.53;;;2.38;;
67514;SDS011;60646;55.802;37.032;2022-10-19T16:07:37;4.90;;;2.40;;
67514;SDS011;60646;55.802;37.032;2022-10-19T16:10:04;4.13;;;2.55;;
67514;SDS011;60646;55.802;37.032;2022-10-19T16:12:30;4.90;;;2.80;;
67514;SDS011;60646;55.802;37.032;2022-10-19T16:14:56;3.63;;;2.17;;
67514;SDS011;60646;55.802;37.032;2022-10-19T16:17:22;4.63;;;2.80;;
67514;SDS011;60646;55.802;37.032;2022-10-19T16:19:48;5.95;;;2.75;;
67514;SDS011;60646;55.802;37.032;2022-10-19T16:22:14;6.22;;;3.58;;
67514;SDS011;60646;55.802;37.032;2022-10-19T16:24:40;5.72;;;3.00;;
67514;SDS011;60646;55.802;37.032;2022-10-19T16:27:06;6.82;;;3.22;;
67514;SDS011;60646;55.802;37.032;2022-10-19T16:29:33;8.13;;;3.53;;
67514;SDS011;60646;55.802;37.032;2022-10-19T16:31:59;7.78;;;3.97;;
67514;SDS011;60646;55.802;37.032;2022-10-19T16:34:26;7.35;;;3.85;;
67514;SDS011;60646;55.802;37.032;2022-10-19T16:36:52;7.47;;;3.53;;
67514;SDS011;60646;55.802;37.032;2022-10-19T16:39:18;4.10;;;3.15;;
67514;SDS011;60646;55.802;37.032;2022-10-19T16:41:44;6.60;;;3.20;;
67514;SDS011;60646;55.802;37.032;2022-10-19T16:44:11;5.25;;;2.92;;
67514;SDS011;60646;55.802;37.032;2022-10-19T16:46:37;12.63;;;5.68;;
67514;SDS011;60646;55.802;37.032;2022-10-19T16:49:03;9.18;;;4.45;;
67514;SDS011;60646;55.802;37.032;2022-10-19T16:51:34;5.50;;;3.30;;
67514;SDS011;60646;55.802;37.032;2022-10-19T16:54:01;6.45;;;4.00;;
67514;SDS011;60646;55.802;37.032;2022-10-19T16:56:28;5.93;;;3.67;;
67514;SDS011;60646;55.802;37.032;2022-10-19T16:58:56;7.03;;;3.80;;
67514;SDS011;60646;55.802;37.032;2022-10-19T17:01:24;6.13;;;3.70;;
67514;SDS011;60646;55.802;37.032;2022-10-19T17:03:50;6.40;;;3.17;;
67514;SDS011;60646;55.802;37.032;2022-10-19T17:06:16;6.57;;;3.05;;
67514;SDS011;60646;55.802;37.032;2022-10-19T17:08:43;5.97;;;3.25;;
67514;SDS011;60646;55.802;37.032;2022-10-19T17:13:43;5.85;;;2.58;;
67514;SDS011;60646;55.802;37.032;2022-10-19T17:16:17;5.82;;;2.70;;
67514;SDS011;60646;55.802;37.032;2022-10-19T17:18:44;5.43;;;2.70;;
67514;SDS011;60646;55.802;37.032;2022-10-19T17:21:12;3.35;;;2.38;;
67514;SDS011;60646;55.802;37.032;2022-10-19T17:23:40;7.03;;;2.35;;
67514;SDS011;60646;55.802;37.032;2022-10-19T17:26:08;5.28;;;2.33;;
67514;SDS011;60646;55.802;37.032;2022-10-19T17:28:34;3.63;;;2.20;;
67514;SDS011;60646;55.802;37.032;2022-10-19T17:31:12;4.60;;;2.80;;
67514;SDS011;60646;55.802;37.032;2022-10-19T17:33:51;6.40;;;2.22;;
67514;SDS011;60646;55.802;37.032;2022-10-19T17:36:24;4.30;;;2.38;;
67514;SDS011;60646;55.802;37.032;2022-10-19T17:38:57;7.03;;;2.72;;
67514;SDS011;60646;55.802;37.032;2022-10-19T17:41:39;6.18;;;2.35;;
67514;SDS011;60646;55.802;37.032;2022-10-19T17:44:05;3.50;;;2.10;;
67514;SDS011;60646;55.802;37.032;2022-10-19T17:46:34;3.97;;;2.20;;
67514;SDS011;60646;55.802;37.032;2022-10-19T17:49:00;5.20;;;2.33;;
67514;SDS011;60646;55.802;37.032;2022-10-19T17:51:27;6.95;;;3.20;;
67514;SDS011;60646;55.802;37.032;2022-10-19T17:53:56;6.13;;;2.88;;
67514;SDS011;60646;55.802;37.032;2022-10-19T17:56:23;6.75;;;2.80;;
67514;SDS011;60646;55.802;37.032;2022-10-19T17:58:50;5.22;;;2.72;;
67514;SDS011;60646;55.802;37.032;2022-10-19T18:01:16;5.25;;;2.70;;
67514;SDS011;60646;55.802;37.032;2022-10-19T18:03:44;5.22;;;2.65;;
67514;SDS011;60646;55.802;37.032;2022-10-19T18:06:12;9.48;;;3.00;;
67514;SDS011;60646;55.802;37.032;2022-10-19T18:08:40;9.75;;;3.78;;
67514;SDS011;60646;55.802;37.032;2022-10-19T18:11:11;4.60;;;2.65;;
67514;SDS011;60646;55.802;37.032;2022-10-19T18:13:42;4.22;;;2.17;;
67514;SDS011;60646;55.802;37.032;2022-10-19T18:16:13;9.40;;;3.60;;
67514;SDS011;60646;55.802;37.032;2022-10-19T18:18:39;9.88;;;4.35;;
67514;SDS011;60646;55.802;37.032;2022-10-19T18:21:09;6.63;;;2.70;;
67514;SDS011;60646;55.802;37.032;2022-10-19T18:23:37;4.38;;;2.35;;
67514;SDS011;60646;55.802;37.032;2022-10-19T18:26:05;10.30;;;3.25;;
67514;SDS011;60646;55.802;37.032;2022-10-19T18:28:35;5.72;;;2.20;;
67514;SDS011;60646;55.802;37.032;2022-10-19T18:33:36;4.68;;;2.00;;
67514;SDS011;60646;55.802;37.032;2022-10-19T18:36:02;5.82;;;2.83;;
67514;SDS011;60646;55.802;37.032;2022-10-19T18:38:29;5.25;;;2.80;;
67514;SDS011;60646;55.802;37.032;2022-10-19T18:40:59;8.27;;;3.20;;
67514;SDS011;60646;55.802;37.032;2022-10-19T18:43:29;5.15;;;2.55;;
67514;SDS011;60646;55.802;37.032;2022-10-19T18:45:56;5.03;;;2.47;;
67514;SDS011;60646;55.802;37.032;2022-10-19T18:48:23;6.55;;;2.67;;
67514;SDS011;60646;55.802;37.032;2022-10-19T18:51:08;4.35;;;2.40;;
67514;SDS011;60646;55.802;37.032;2022-10-19T18:53:34;3.72;;;2.22;;
67514;SDS011;60646;55.802;37.032;2022-10-19T18:56:01;3.50;;;2.20;;
67514;SDS011;60646;55.802;37.032;2022-10-19T18:58:30;3.95;;;2.00;;
67514;SDS011;60646;55.802;37.032;2022-10-19T19:01:22;2.28;;;1.77;;
67514;SDS011;60646;55.802;37.032;2022-10-19T19:06:43;3.15;;;1.70;;
67514;SDS011;60646;55.802;37.032;2022-10-19T19:09:12;2.42;;;1.83;;
67514;SDS011;60646;55.802;37.032;2022-10-19T19:11:39;2.85;;;1.83;;
67514;SDS011;60646;55.802;37.032;2022-10-19T19:14:07;2.63;;;1.65;;
67514;SDS011;60646;55.802;37.032;2022-10-19T19:16:38;3.08;;;1.60;;
67514;SDS011;60646;55.802;37.032;2022-10-19T19:19:04;3.63;;;2.47;;
67514;SDS011;60646;55.802;37.032;2022-10-19T19:21:56;2.55;;;1.83;;
67514;SDS011;60646;55.802;37.032;2022-10-19T19:24:27;4.60;;;2.42;;
67514;SDS011;60646;55.802;37.032;2022-10-19T19:26:59;9.13;;;2.78;;
67514;SDS011;60646;55.802;37.032;2022-10-19T19:29:25;4.47;;;2.03;;
67514;SDS011;60646;55.802;37.032;2022-10-19T19:31:52;3.50;;;2.10;;
67514;SDS011;60646;55.802;37.032;2022-10-19T19:34:21;5.10;;;2.20;;
67514;SDS011;60646;55.802;37.032;2022-10-19T19:36:50;3.83;;;2.20;;
67514;SDS011;60646;55.802;37.032;2022-10-19T19:39:30;2.67;;;1.98;;
67514;SDS011;60646;55.802;37.032;2022-10-19T19:42:06;4.22;;;1.70;;
67514;SDS011;60646;55.802;37.032;2022-10-19T19:45:39;2.60;;;1.90;;
67514;SDS011;60646;55.802;37.032;2022-10-19T19:48:56;3.00;;;1.80;;
67514;SDS011;60646;55.802;37.032;2022-10-19T19:52:26;3.50;;;2.20;;
67514;SDS011;60646;55.802;37.032;2022-10-19T19:55:32;3.20;;;1.70;;
67514;SDS011;60646;55.802;37.032;2022-10-19T19:58:03;2.92;;;1.90;;
67514;SDS011;60646;55.802;37.032;2022-10-19T20:01:13;3.25;;;1.75;;
67514;SDS011;60646;55.802;37.032;2022-10-19T20:09:07;3.50;;;1.60;;
67514;SDS011;60646;55.802;37.032;2022-10-19T20:12:03;2.78;;;1.77;;
67514;SDS011;60646;55.802;37.032;2022-10-19T20:15:25;4.13;;;1.75;;
67514;SDS011;60646;55.802;37.032;2022-10-19T20:45:21;3.53;;;1.50;;
67514;SDS011;60646;55.802;37.032;2022-10-19T20:52:32;4.40;;;1.55;;
67514;SDS011;60646;55.802;37.032;2022-10-19T21:13:18;1.85;;;1.33;;
67514;SDS011;60646;55.802;37.032;2022-10-19T21:15:45;3.55;;;1.73;;
67514;SDS011;60646;55.802;37.032;2022-10-19T21:18:13;2.22;;;1.20;;
67514;SDS011;60646;55.802;37.032;2022-10-19T21:20:39;3.25;;;1.45;;
67514;SDS011;60646;55.802;37.032;2022-10-19T21:23:08;2.30;;;1.20;;
67514;SDS011;60646;55.802;37.032;2022-10-19T21:25:34;1.75;;;1.23;;
67514;SDS011;60646;55.802;37.032;2022-10-19T21:28:00;1.80;;;1.13;;
67514;SDS011;60646;55.802;37.032;2022-10-19T21:30:25;2.38;;;1.20;;
67514;SDS011;60646;55.802;37.032;2022-10-19T21:32:52;1.25;;;1.00;;
67514;SDS011;60646;55.802;37.032;2022-10-19T21:35:18;1.52;;;1.00;;
67514;SDS011;60646;55.802;37.032;2022-10-19T21:37:44;1.27;;;0.80;;
67514;SDS011;60646;55.802;37.032;2022-10-19T21:40:10;1.95;;;1.00;;
67514;SDS011;60646;55.802;37.032;2022-10-19T21:42:37;1.15;;;0.88;;
67514;SDS011;60646;55.802;37.032;2022-10-19T21:45:04;1.75;;;1.00;;
67514;SDS011;60646;55.802;37.032;2022-10-19T21:47:30;1.35;;;0.80;;
67514;SDS011;60646;55.802;37.032;2022-10-19T21:49:56;2.45;;;1.75;;
67514;SDS011;60646;55.802;37.032;2022-10-19T21:52:22;0.90;;;0.80;;
67514;SDS011;60646;55.802;37.032;2022-10-19T21:54:48;3.25;;;1.33;;
67514;SDS011;60646;55.802;37.032;2022-10-19T21:57:13;2.97;;;1.38;;
67514;SDS011;60646;55.802;37.032;2022-10-19T21:59:39;4.70;;;1.70;;
67514;SDS011;60646;55.802;37.032;2022-10-19T22:02:05;5.40;;;2.00;;
67514;SDS011;60646;55.802;37.032;2022-10-19T22:04:31;6.38;;;2.08;;
67514;SDS011;60646;55.802;37.032;2022-10-19T22:06:57;8.57;;;2.97;;
67514;SDS011;60646;55.802;37.032;2022-10-19T22:09:24;6.20;;;2.25;;
67514;SDS011;60646;55.802;37.032;2022-10-19T22:11:50;4.35;;;1.20;;
67514;SDS011;60646;55.802;37.032;2022-10-19T22:14:16;2.45;;;1.10;;
67514;SDS011;60646;55.802;37.032;2022-10-19T22:16:42;5.88;;;2.10;;
67514;SDS011;60646;55.802;37.032;2022-10-19T22:19:09;7.90;;;2.40;;
67514;SDS011;60646;55.802;37.032;2022-10-19T22:21:36;14.13;;;5.28;;
67514;SDS011;60646;55.802;37.032;2022-10-19T22:24:06;19.38;;;6.00;;
67514;SDS011;60646;55.802;37.032;2022-10-19T22:26:35;19.88;;;5.28;;
67514;SDS011;60646;55.802;37.032;2022-10-19T22:29:03;16.98;;;4.95;;
67514;SDS011;60646;55.802;37.032;2022-10-19T22:31:30;12.50;;;4.03;;
67514;SDS011;60646;55.802;37.032;2022-10-19T22:33:58;8.93;;;3.47;;
67514;SDS011;60646;55.802;37.032;2022-10-19T22:36:25;4.80;;;1.92;;
67514;SDS011;60646;55.802;37.032;2022-10-19T22:38:50;4.05;;;1.50;;
67514;SDS011;60646;55.802;37.032;2022-10-19T22:41:16;4.38;;;1.98;;
67514;SDS011;60646;55.802;37.032;2022-10-19T22:43:42;9.98;;;3.72;;
67514;SDS011;60646;55.802;37.032;2022-10-19T22:46:08;4.60;;;2.25;;
67514;SDS011;60646;55.802;37.032;2022-10-19T22:48:34;6.28;;;1.35;;
67514;SDS011;60646;55.802;37.032;2022-10-19T22:51:01;2.20;;;1.10;;
67514;SDS011;60646;55.802;37.032;2022-10-19T22:53:26;2.33;;;1.20;;
67514;SDS011;60646;55.802;37.032;2022-10-19T22:55:52;1.90;;;1.00;;
67514;SDS011;60646;55.802;37.032;2022-10-19T22:58:18;2.38;;;0.90;;
67514;SDS011;60646;55.802;37.032;2022-10-19T23:00:44;2.15;;;1.17;;
67514;SDS011;60646;55.802;37.032;2022-10-19T23:03:10;2.80;;;1.25;;
67514;SDS011;60646;55.802;37.032;2022-10-19T23:05:36;2.35;;;1.00;;
67514;SDS011;60646;55.802;37.032;2022-10-19T23:08:01;1.45;;;1.00;;
67514;SDS011;60646;55.802;37.032;2022-10-19T23:10:27;1.88;;;1.00;;
67514;SDS011;60646;55.802;37.032;2022-10-19T23:13:12;2.70;;;1.10;;
67514;SDS011;60646;55.802;37.032;2022-10-19T23:15:38;3.17;;;1.20;;
67514;SDS011;60646;55.802;37.032;2022-10-19T23:18:03;2.80;;;1.40;;
67514;SDS011;60646;55.802;37.032;2022-10-19T23:20:29;2.60;;;1.27;;
67514;SDS011;60646;55.802;37.032;2022-10-19T23:22:55;4.63;;;2.25;;
67514;SDS011;60646;55.802;37.032;2022-10-19T23:25:21;6.78;;;2.40;;
67514;SDS011;60646;55.802;37.032;2022-10-19T23:27:47;5.03;;;2.15;;
67514;SDS011;60646;55.802;37.032;2022-10-19T23:30:13;8.90;;;2.50;;
67514;SDS011;60646;55.802;37.032;2022-10-19T23:32:39;7.57;;;2.00;;
67514;SDS011;60646;55.802;37.032;2022-10-19T23:35:05;3.67;;;1.15;;
67514;SDS011;60646;55.802;37.032;2022-10-19T23:37:35;5.25;;;2.28;;
67514;SDS011;60646;55.802;37.032;2022-10-19T23:40:01;2.65;;;1.60;;
67514;SDS011;60646;55.802;37.032;2022-10-19T23:42:28;2.55;;;1.38;;
67514;SDS011;60646;55.802;37.032;2022-10-19T23:44:54;2.63;;;1.35;;
67514;SDS011;60646;55.802;37.032;2022-10-19T23:47:20;4.10;;;1.60;;
67514;SDS011;60646;55.802;37.032;2022-10-19T23:49:46;2.85;;;1.20;;
67514;SDS011;60646;55.802;37.032;2022-10-19T23:52:12;4.03;;;1.83;;
67514;SDS011;60646;55.802;37.032;2022-10-19T23:54:38;3.25;;;1.40;;
67514;SDS011;60646;55.802;37.032;2022-10-19T23:57:04;2.38;;;1.25;;
67514;SDS011;60646;55.802;37.032;2022-10-19T23:59:30;3.03;;;1.30;;
